createdAt,value
2022-08-10T00:00:21.534Z,65.34
2022-08-10T00:01:18.468Z,66.25
2022-08-10T00:02:15.330Z,66.34
2022-08-10T00:03:12.122Z,66.89
2022-08-10T00:04:08.851Z,66.26
2022-08-10T00:05:06.531Z,67.10
2022-08-10T00:06:03.291Z,67.42
2022-08-10T00:07:00.018Z,65.54
2022-08-10T00:07:56.812Z,66.48
2022-08-10T00:08:54.223Z,66.02
2022-08-10T00:09:51.420Z,65.40
2022-08-10T00:10:48.258Z,65.49
2022-08-10T00:11:44.971Z,64.23
2022-08-10T00:12:54.356Z,64.87
2022-08-10T00:13:52.057Z,65.62
2022-08-10T00:14:48.795Z,65.13
2022-08-10T00:15:53.696Z,64.75
2022-08-10T00:16:51.535Z,64.40
2022-08-10T00:17:48.694Z,65.68
2022-08-10T00:18:45.463Z,67.11
2022-08-10T00:20:03.580Z,67.09
2022-08-10T00:20:59.014Z,68.44
2022-08-10T00:21:55.720Z,68.05
2022-08-10T00:22:57.401Z,68.38
2022-08-10T00:23:54.972Z,68.82
2022-08-10T00:24:51.829Z,69.71
2022-08-10T00:25:48.573Z,70.67
2022-08-10T00:28:01.678Z,68.85
2022-08-10T00:28:04.069Z,68.08
2022-08-10T00:29:01.078Z,68.11
2022-08-10T00:29:59.410Z,67.97
2022-08-10T00:30:56.215Z,67.56
2022-08-10T00:31:58.792Z,67.19
2022-08-10T00:32:56.171Z,67.85
2022-08-10T00:33:52.928Z,68.41
2022-08-10T00:34:50.799Z,69.32
2022-08-10T00:35:47.706Z,67.16
2022-08-10T00:36:44.432Z,67.58
2022-08-10T00:37:41.205Z,68.04
2022-08-10T00:38:37.996Z,68.01
2022-08-10T00:39:36.467Z,66.69
2022-08-10T00:40:37.735Z,66.04
2022-08-10T00:41:34.883Z,65.49
2022-08-10T00:42:32.145Z,65.62
2022-08-10T00:43:28.982Z,66.06
2022-08-10T00:44:25.760Z,66.55
2022-08-10T00:45:22.551Z,67.42
2022-08-10T00:46:19.329Z,67.26
2022-08-10T00:47:35.984Z,67.11
2022-08-10T00:48:33.726Z,67.99
2022-08-10T00:49:30.546Z,68.02
2022-08-10T00:50:27.715Z,68.29
2022-08-10T00:51:40.275Z,67.94
2022-08-10T00:52:41.620Z,67.15
2022-08-10T00:53:38.494Z,67.27
2022-08-10T00:54:37.325Z,67.92
2022-08-10T00:55:34.194Z,67.49
2022-08-10T00:57:18.083Z,67.34
2022-08-10T00:58:08.682Z,67.71
2022-08-10T00:59:05.452Z,69.40
2022-08-10T01:00:03.853Z,71.03
2022-08-10T01:01:00.858Z,70.81
2022-08-10T01:02:10.936Z,69.67
2022-08-10T01:03:08.859Z,68.94
2022-08-10T01:04:54.258Z,68.80
2022-08-10T01:05:25.321Z,68.12
2022-08-10T01:06:43.675Z,69.31
2022-08-10T01:08:08.023Z,69.02
2022-08-10T01:09:23.060Z,68.60
2022-08-10T01:10:31.531Z,69.40
2022-08-10T01:12:31.408Z,69.91
2022-08-10T01:13:06.799Z,69.16
2022-08-10T01:14:16.026Z,68.60
2022-08-10T01:15:27.025Z,71.97
2022-08-10T01:16:37.557Z,71.06
2022-08-10T01:17:50.713Z,69.61
2022-08-10T01:19:13.704Z,70.26
2022-08-10T01:20:27.294Z,70.34
2022-08-10T01:22:03.787Z,70.32
2022-08-10T01:23:24.732Z,70.31
2022-08-10T01:25:13.427Z,70.90
2022-08-10T01:26:32.000Z,71.16
2022-08-10T01:27:50.175Z,71.51
2022-08-10T01:29:08.071Z,71.11
2022-08-10T01:30:14.384Z,70.26
2022-08-10T01:31:20.087Z,70.76
2022-08-10T01:32:42.229Z,70.38
2022-08-10T01:33:58.366Z,70.40
2022-08-10T01:35:09.142Z,70.10
2022-08-10T01:36:16.920Z,68.63
2022-08-10T01:37:18.427Z,69.13
2022-08-10T01:38:34.021Z,68.46
2022-08-10T01:39:43.687Z,68.60
2022-08-10T01:40:49.039Z,69.18
2022-08-10T01:41:50.763Z,69.06
2022-08-10T01:42:49.433Z,71.51
2022-08-10T01:43:58.519Z,70.68
2022-08-10T01:45:04.923Z,70.85
2022-08-10T01:46:05.752Z,70.29
2022-08-10T01:47:27.616Z,69.85
2022-08-10T01:48:32.186Z,68.54
2022-08-10T01:49:31.933Z,67.93
2022-08-10T01:50:53.213Z,69.82
2022-08-10T01:52:00.943Z,69.47
2022-08-10T01:53:11.365Z,69.61
2022-08-10T01:54:13.392Z,69.51
2022-08-10T01:55:14.055Z,69.77
2022-08-10T01:56:16.607Z,69.67
2022-08-10T01:57:17.370Z,69.10
2022-08-10T01:58:19.848Z,68.90
2022-08-10T01:59:29.125Z,68.41
2022-08-10T02:00:29.516Z,68.58
2022-08-10T02:01:30.573Z,68.91
2022-08-10T02:02:31.521Z,68.28
2022-08-10T02:03:31.895Z,68.50
2022-08-10T02:04:31.212Z,68.06
2022-08-10T02:05:31.864Z,68.30
2022-08-10T02:06:32.320Z,68.21
2022-08-10T02:07:32.906Z,68.25
2022-08-10T02:08:35.406Z,68.54
2022-08-10T02:09:36.780Z,69.06
2022-08-10T02:10:36.840Z,70.54
2022-08-10T02:12:06.406Z,70.43
2022-08-10T02:12:57.442Z,69.79
2022-08-10T02:13:58.271Z,72.43
2022-08-10T02:15:02.265Z,74.39
2022-08-10T02:16:03.024Z,78.32
2022-08-10T02:17:04.332Z,75.08
2022-08-10T02:18:05.128Z,72.01
2022-08-10T02:19:04.663Z,72.23
2022-08-10T02:20:08.965Z,71.49
2022-08-10T02:21:08.118Z,70.88
2022-08-10T02:22:35.403Z,70.53
2022-08-10T02:23:29.937Z,69.95
2022-08-10T02:24:28.721Z,69.68
2022-08-10T02:25:41.438Z,70.07
2022-08-10T02:26:44.582Z,69.72
2022-08-10T02:27:43.632Z,72.35
2022-08-10T02:28:42.883Z,70.62
2022-08-10T02:29:42.732Z,72.89
2022-08-10T02:30:48.802Z,72.63
2022-08-10T02:31:46.487Z,71.44
2022-08-10T02:32:49.610Z,70.73
2022-08-10T02:33:57.666Z,72.19
2022-08-10T02:35:00.929Z,76.48
2022-08-10T02:36:05.442Z,82.68
2022-08-10T02:37:11.163Z,87.64
2022-08-10T02:38:15.552Z,89.76
2022-08-10T02:39:16.138Z,88.91
2022-08-10T02:45:03.894Z,85.60
2022-08-10T02:45:14.170Z,84.45
2022-08-10T02:45:14.340Z,79.74
2022-08-10T02:45:24.426Z,82.58
2022-08-10T02:46:28.478Z,82.40
2022-08-10T02:47:52.737Z,85.13
2022-08-10T02:49:00.769Z,81.18
2022-08-10T02:50:35.047Z,82.98
2022-08-10T02:52:14.297Z,78.71
2022-08-10T02:53:55.841Z,77.29
2022-08-10T02:54:38.721Z,80.79
2022-08-10T02:55:48.545Z,80.18
2022-08-10T02:57:06.525Z,77.55
2022-08-10T02:58:13.431Z,81.85
2022-08-10T02:59:24.175Z,83.39
2022-08-10T03:00:23.742Z,83.07
2022-08-10T03:01:27.231Z,81.45
2022-08-10T03:02:34.466Z,78.52
2022-08-10T03:03:39.173Z,77.53
2022-08-10T03:04:55.791Z,80.49
2022-08-10T03:06:08.464Z,89.28
2022-08-10T03:07:11.877Z,93.29
2022-08-10T03:08:12.642Z,87.85
2022-08-10T03:09:15.185Z,86.07
2022-08-10T03:10:33.957Z,85.28
2022-08-10T03:12:35.994Z,83.25
2022-08-10T03:12:56.365Z,86.16
2022-08-10T03:13:59.904Z,89.68
2022-08-10T03:14:57.975Z,86.98
2022-08-10T03:15:58.736Z,85.61
2022-08-10T03:16:58.393Z,83.25
2022-08-10T03:17:58.918Z,82.54
2022-08-10T03:19:00.455Z,85.11
2022-08-10T03:20:33.864Z,83.29
2022-08-10T03:21:21.280Z,85.22
2022-08-10T03:22:20.390Z,85.90
2022-08-10T03:23:21.640Z,83.11
2022-08-10T03:24:32.826Z,80.73
2022-08-10T03:25:32.003Z,79.71
2022-08-10T03:26:31.573Z,78.50
2022-08-10T03:27:30.763Z,76.86
2022-08-10T03:28:30.311Z,78.62
2022-08-10T03:29:29.111Z,77.37
2022-08-10T03:30:33.518Z,79.49
2022-08-10T03:31:33.027Z,78.01
2022-08-10T03:32:33.054Z,76.38
2022-08-10T03:33:33.515Z,80.37
2022-08-10T03:34:32.807Z,80.21
2022-08-10T03:35:30.643Z,78.47
2022-08-10T03:36:40.225Z,77.40
2022-08-10T03:37:39.552Z,76.87
2022-08-10T03:38:36.987Z,82.00
2022-08-10T03:39:33.953Z,81.73
2022-08-10T03:40:45.326Z,81.66
2022-08-10T03:42:05.988Z,82.24
2022-08-10T03:43:08.234Z,83.83
2022-08-10T03:44:08.070Z,82.65
2022-08-10T03:45:07.634Z,81.42
2022-08-10T03:46:09.836Z,78.76
2022-08-10T03:47:16.477Z,77.86
2022-08-10T03:48:16.634Z,82.48
2022-08-10T03:49:14.897Z,80.64
2022-08-10T03:50:27.906Z,79.66
2022-08-10T03:51:32.220Z,80.36
2022-08-10T03:52:30.214Z,78.36
2022-08-10T03:54:03.536Z,78.41
2022-08-10T03:54:46.048Z,79.40
2022-08-10T03:56:28.003Z,81.19
2022-08-10T03:57:00.393Z,85.53
2022-08-10T03:57:57.378Z,88.12
2022-08-10T03:58:54.414Z,89.29
2022-08-10T03:59:51.450Z,86.55
2022-08-10T04:00:51.244Z,85.62
2022-08-10T04:02:44.421Z,85.11
2022-08-10T04:03:09.283Z,84.72
2022-08-10T04:04:11.786Z,84.10
2022-08-10T04:05:11.406Z,83.90
2022-08-10T04:06:10.887Z,80.83
2022-08-10T04:07:08.371Z,82.37
2022-08-10T04:08:05.911Z,82.61
2022-08-10T04:09:05.491Z,86.35
2022-08-10T04:10:02.267Z,85.84
2022-08-10T04:10:59.940Z,85.48
2022-08-10T04:11:56.792Z,84.83
2022-08-10T04:12:53.561Z,84.20
2022-08-10T04:13:55.720Z,83.36
2022-08-10T04:14:53.565Z,83.50
2022-08-10T04:15:50.758Z,82.16
2022-08-10T04:16:48.092Z,82.93
2022-08-10T04:18:00.185Z,84.70
2022-08-10T04:19:03.463Z,86.75
2022-08-10T04:20:02.205Z,83.90
2022-08-10T04:21:11.456Z,85.24
2022-08-10T04:22:18.029Z,85.69
2022-08-10T04:23:21.119Z,87.42
2022-08-10T04:24:26.773Z,85.03
2022-08-10T04:25:31.241Z,84.44
2022-08-10T04:26:28.573Z,82.61
2022-08-10T04:27:26.602Z,82.66
2022-08-10T04:28:26.202Z,82.82
2022-08-10T04:29:23.186Z,83.80
2022-08-10T04:30:20.306Z,81.06
2022-08-10T04:31:20.227Z,83.48
2022-08-10T04:32:20.921Z,81.75
2022-08-10T04:33:22.741Z,81.82
2022-08-10T04:34:20.914Z,83.60
2022-08-10T04:35:20.898Z,84.35
2022-08-10T04:36:20.930Z,81.96
2022-08-10T04:37:22.193Z,80.95
2022-08-10T04:38:19.507Z,80.20
2022-08-10T04:39:17.726Z,83.46
2022-08-10T04:40:25.268Z,86.71
2022-08-10T04:41:28.751Z,86.02
2022-08-10T04:42:25.822Z,82.64
2022-08-10T04:43:22.706Z,84.14
2022-08-10T04:44:19.451Z,85.01
2022-08-10T04:45:16.574Z,83.75
2022-08-10T04:46:42.856Z,82.37
2022-08-10T04:47:57.703Z,81.99
2022-08-10T04:49:01.720Z,80.63
2022-08-10T04:49:58.946Z,83.84
2022-08-10T04:50:56.882Z,88.51
2022-08-10T04:51:56.424Z,85.05
2022-08-10T04:52:53.422Z,86.82
2022-08-10T04:54:03.156Z,86.93
2022-08-10T04:55:03.676Z,87.31
2022-08-10T04:56:00.486Z,86.17
2022-08-10T04:56:57.239Z,85.67
2022-08-10T04:57:54.026Z,85.30
2022-08-10T04:58:50.808Z,92.16
2022-08-10T04:59:48.806Z,90.20
2022-08-10T05:00:45.612Z,85.57
2022-08-10T05:02:21.590Z,87.41
2022-08-10T05:02:59.374Z,88.53
2022-08-10T05:04:35.056Z,91.56
2022-08-10T05:05:12.938Z,93.20
2022-08-10T05:06:09.809Z,93.09
2022-08-10T05:07:08.284Z,91.50
2022-08-10T05:08:05.153Z,92.56
2022-08-10T05:09:01.942Z,90.59
2022-08-10T05:10:02.782Z,89.73
2022-08-10T05:11:02.728Z,92.44
2022-08-10T05:11:59.511Z,92.81
2022-08-10T05:12:56.439Z,93.12
2022-08-10T05:13:53.219Z,94.21
2022-08-10T05:14:51.969Z,98.00
2022-08-10T05:17:05.473Z,92.53
2022-08-10T05:18:09.236Z,97.87
2022-08-10T05:19:07.974Z,97.75
2022-08-10T05:20:07.998Z,95.96
2022-08-10T05:21:05.378Z,98.13
2022-08-10T05:22:04.636Z,99.59
2022-08-10T05:23:01.960Z,98.01
2022-08-10T05:24:04.478Z,98.58
2022-08-10T05:25:01.267Z,100.00
2022-08-10T05:25:57.986Z,100.00
2022-08-10T05:27:09.159Z,100.00
2022-08-10T05:28:06.984Z,100.00
2022-08-10T05:29:04.078Z,100.00
2022-08-10T05:30:03.135Z,98.55
2022-08-10T05:31:00.583Z,99.43
2022-08-10T05:31:57.538Z,100.00
2022-08-10T05:32:56.301Z,98.19
2022-08-10T05:33:56.439Z,99.67
2022-08-10T05:34:53.188Z,97.11
2022-08-10T05:35:55.161Z,99.11
2022-08-10T05:36:55.438Z,98.30
2022-08-10T05:38:11.978Z,100.00
2022-08-10T05:39:12.487Z,100.00
2022-08-10T05:40:09.860Z,99.38
2022-08-10T05:41:07.153Z,99.03
2022-08-10T05:42:04.234Z,98.82
2022-08-10T05:43:01.094Z,100.00
2022-08-10T05:43:58.542Z,99.65
2022-08-10T05:44:55.751Z,98.23
2022-08-10T05:46:18.543Z,97.34
2022-08-10T05:47:12.644Z,98.61
2022-08-10T05:48:55.192Z,95.09
2022-08-10T05:49:26.674Z,97.97
2022-08-10T05:50:31.028Z,99.74
2022-08-10T05:51:30.268Z,95.98
2022-08-10T05:52:27.224Z,95.80
2022-08-10T05:54:02.723Z,95.80
2022-08-10T05:54:41.155Z,96.92
2022-08-10T05:55:38.196Z,98.37
2022-08-10T05:56:54.041Z,97.26
2022-08-10T05:57:54.143Z,95.18
2022-08-10T05:58:51.080Z,95.70
2022-08-10T06:00:35.088Z,95.17
2022-08-10T06:01:15.183Z,93.89
2022-08-10T06:02:31.648Z,92.73
2022-08-10T06:03:43.573Z,90.11
2022-08-10T06:04:44.422Z,92.45
2022-08-10T06:05:44.603Z,92.27
2022-08-10T06:06:47.644Z,93.87
2022-08-10T06:08:10.093Z,96.26
2022-08-10T06:09:08.876Z,95.54
2022-08-10T06:10:10.420Z,94.41
2022-08-10T06:12:26.364Z,92.58
2022-08-10T06:12:30.964Z,94.15
2022-08-10T06:13:57.969Z,93.39
2022-08-10T06:15:21.618Z,96.55
2022-08-10T06:16:20.234Z,94.49
2022-08-10T06:17:19.771Z,92.47
2022-08-10T06:18:19.019Z,93.28
2022-08-10T06:19:17.239Z,91.54
2022-08-10T06:20:14.459Z,90.25
2022-08-10T06:21:12.090Z,91.17
2022-08-10T06:22:10.339Z,89.98
2022-08-10T06:23:07.643Z,89.59
2022-08-10T06:24:07.317Z,89.96
2022-08-10T06:25:38.210Z,90.61
2022-08-10T06:26:22.428Z,89.44
2022-08-10T06:27:19.356Z,88.98
2022-08-10T06:28:37.689Z,88.15
2022-08-10T06:29:37.939Z,88.93
2022-08-10T06:30:37.245Z,88.71
2022-08-10T06:31:47.772Z,89.82
2022-08-10T06:32:46.924Z,92.26
2022-08-10T06:33:46.007Z,92.47
2022-08-10T06:34:48.073Z,90.36
2022-08-10T06:35:46.473Z,87.89
2022-08-10T06:36:46.363Z,88.69
2022-08-10T06:37:50.688Z,92.35
2022-08-10T06:38:51.870Z,94.04
2022-08-10T06:39:49.088Z,93.26
2022-08-10T06:40:48.406Z,94.85
2022-08-10T06:41:57.834Z,94.42
2022-08-10T06:43:13.468Z,91.91
2022-08-10T06:44:19.491Z,91.25
2022-08-10T06:45:23.339Z,90.32
2022-08-10T06:46:23.361Z,90.86
2022-08-10T06:47:26.837Z,89.86
2022-08-10T06:48:39.031Z,90.08
2022-08-10T06:49:38.729Z,88.78
2022-08-10T06:50:56.265Z,86.70
2022-08-10T06:51:58.754Z,86.22
2022-08-10T06:52:57.347Z,86.52
2022-08-10T06:53:59.512Z,86.34
2022-08-10T06:54:58.810Z,84.93
2022-08-10T06:56:06.706Z,84.38
2022-08-10T06:57:17.898Z,84.01
2022-08-10T06:58:20.708Z,87.15
2022-08-10T06:59:36.920Z,85.82
2022-08-10T07:00:41.371Z,85.34
2022-08-10T07:01:41.696Z,86.89
2022-08-10T07:02:56.137Z,85.76
2022-08-10T07:04:02.474Z,86.34
2022-08-10T07:05:02.275Z,83.89
2022-08-10T07:06:01.795Z,83.28
2022-08-10T07:07:03.081Z,81.89
2022-08-10T07:08:02.143Z,81.90
2022-08-10T07:09:01.940Z,83.19
2022-08-10T07:10:00.414Z,85.70
2022-08-10T07:10:57.990Z,84.94
2022-08-10T07:11:58.371Z,82.70
2022-08-10T07:13:06.672Z,84.26
2022-08-10T07:14:14.113Z,81.33
2022-08-10T07:15:17.306Z,81.13
2022-08-10T07:16:16.730Z,80.91
2022-08-10T07:17:19.159Z,80.55
2022-08-10T07:18:20.621Z,81.05
2022-08-10T07:19:19.570Z,80.74
2022-08-10T07:20:21.447Z,78.54
2022-08-10T07:21:19.685Z,80.59
2022-08-10T07:23:22.732Z,80.07
2022-08-10T07:23:58.339Z,78.28
2022-08-10T07:24:58.110Z,78.59
2022-08-10T07:25:58.426Z,77.42
2022-08-10T07:26:58.660Z,76.03
2022-08-10T07:27:59.668Z,76.67
2022-08-10T07:29:00.574Z,75.58
2022-08-10T07:30:00.612Z,75.01
2022-08-10T07:30:58.247Z,75.93
2022-08-10T07:31:57.791Z,75.13
2022-08-10T07:32:56.861Z,73.76
2022-08-10T07:33:56.213Z,73.40
2022-08-10T07:34:56.099Z,73.38
2022-08-10T07:35:55.476Z,73.07
2022-08-10T07:36:53.786Z,72.99
2022-08-10T07:37:54.384Z,73.90
2022-08-10T07:38:55.682Z,69.93
2022-08-10T07:40:02.970Z,70.05
2022-08-10T07:41:03.535Z,69.15
2022-08-10T07:42:03.467Z,68.98
2022-08-10T07:43:02.524Z,68.32
2022-08-10T07:44:04.303Z,70.79
2022-08-10T07:45:03.223Z,70.95
2022-08-10T07:46:05.417Z,69.70
2022-08-10T07:47:13.611Z,67.68
2022-08-10T07:48:16.918Z,68.60
2022-08-10T07:49:26.466Z,69.18
2022-08-10T07:50:25.980Z,69.00
2022-08-10T07:51:23.949Z,67.81
2022-08-10T07:52:23.422Z,68.70
2022-08-10T07:53:26.413Z,64.95
2022-08-10T07:54:26.367Z,65.47
2022-08-10T07:56:03.751Z,64.73
2022-08-10T07:56:48.969Z,64.02
2022-08-10T07:57:52.401Z,62.81
2022-08-10T07:58:57.993Z,62.32
2022-08-10T08:00:01.663Z,60.29
2022-08-10T08:01:01.408Z,61.47
2022-08-10T08:02:02.289Z,62.42
2022-08-10T08:03:02.363Z,61.87
2022-08-10T08:04:06.056Z,61.67
2022-08-10T08:05:12.207Z,61.22
2022-08-10T08:06:33.097Z,61.27
2022-08-10T08:07:32.514Z,61.13
2022-08-10T08:08:32.571Z,61.39
2022-08-10T08:09:31.702Z,61.99
2022-08-10T08:10:30.068Z,61.84
2022-08-10T08:11:29.471Z,61.92
2022-08-10T08:12:28.046Z,61.29
2022-08-10T08:13:26.773Z,62.02
2022-08-10T08:14:26.444Z,62.11
2022-08-10T08:16:18.438Z,62.91
2022-08-10T08:16:47.560Z,62.71
2022-08-10T08:17:47.402Z,61.88
2022-08-10T08:19:26.324Z,62.49
2022-08-10T08:20:17.242Z,63.16
2022-08-10T08:24:09.318Z,62.04
2022-08-10T08:24:09.976Z,61.20
2022-08-10T08:24:14.656Z,61.16
2022-08-10T08:25:14.368Z,58.76
2022-08-10T08:26:12.491Z,60.76
2022-08-10T08:27:16.910Z,61.16
2022-08-10T08:28:15.866Z,60.49
2022-08-10T08:29:13.737Z,59.96
2022-08-10T08:30:12.201Z,58.45
2022-08-10T08:31:11.112Z,58.71
2022-08-10T08:32:09.693Z,59.03
2022-08-10T08:33:12.717Z,58.72
2022-08-10T08:34:34.440Z,59.07
2022-08-10T08:35:33.124Z,59.16
2022-08-10T08:36:31.318Z,59.45
2022-08-10T08:38:33.561Z,58.81
2022-08-10T08:38:51.386Z,60.04
2022-08-10T08:39:49.981Z,59.74
2022-08-10T08:41:07.843Z,59.56
2022-08-10T08:42:29.248Z,59.20
2022-08-10T08:43:38.091Z,60.36
2022-08-10T08:44:49.199Z,59.36
2022-08-10T08:46:13.922Z,60.47
2022-08-10T08:48:05.826Z,59.59
2022-08-10T08:48:48.422Z,58.94
2022-08-10T08:50:10.229Z,58.07
2022-08-10T08:52:09.871Z,58.88
2022-08-10T08:53:21.976Z,58.87
2022-08-10T08:54:19.298Z,57.89
2022-08-10T08:56:03.611Z,58.24
2022-08-10T08:57:50.401Z,56.96
2022-08-10T08:58:50.679Z,56.50
2022-08-10T09:00:12.599Z,57.17
2022-08-10T09:01:23.708Z,57.41
2022-08-10T09:02:54.449Z,56.10
2022-08-10T09:04:21.263Z,55.22
2022-08-10T09:05:59.835Z,52.69
2022-08-10T09:07:59.653Z,53.98
2022-08-10T09:08:41.527Z,52.92
2022-08-10T09:09:55.768Z,52.83
2022-08-10T09:11:04.533Z,51.41
2022-08-10T09:12:08.824Z,50.40
2022-08-10T09:13:08.456Z,51.10
2022-08-10T09:14:25.550Z,50.51
2022-08-10T09:15:49.817Z,49.92
2022-08-10T09:17:04.336Z,48.72
2022-08-10T09:18:07.665Z,49.42
2022-08-10T09:19:19.791Z,50.18
2022-08-10T09:20:51.003Z,50.31
2022-08-10T09:22:21.727Z,49.89
2022-08-10T09:24:04.723Z,49.16
2022-08-10T09:25:14.468Z,49.50
2022-08-10T09:26:22.776Z,48.81
2022-08-10T09:27:22.781Z,48.42
2022-08-10T09:28:27.047Z,48.08
2022-08-10T09:29:28.075Z,49.31
2022-08-10T09:31:18.810Z,49.07
2022-08-10T09:36:16.061Z,48.17
2022-08-10T09:36:20.906Z,49.16
2022-08-10T09:36:26.172Z,49.29
2022-08-10T09:37:24.433Z,47.98
2022-08-10T09:39:02.901Z,48.16
2022-08-10T09:41:01.101Z,48.15
2022-08-10T09:41:45.289Z,47.87
2022-08-10T09:43:25.399Z,48.33
2022-08-10T09:44:57.119Z,48.94
2022-08-10T09:45:55.868Z,48.19
2022-08-10T09:46:58.963Z,48.77
2022-08-10T09:48:41.741Z,48.53
2022-08-10T09:50:04.922Z,48.23
2022-08-10T09:52:41.046Z,47.85
2022-08-10T09:54:15.756Z,47.83
2022-08-10T09:56:17.325Z,47.14
2022-08-10T09:57:46.521Z,46.87
2022-08-10T09:59:29.110Z,47.66
2022-08-10T10:00:23.386Z,47.95
2022-08-10T10:02:02.776Z,47.32
2022-08-10T10:03:35.960Z,47.31
2022-08-10T10:04:53.053Z,47.44
2022-08-10T10:06:04.988Z,47.53
2022-08-10T10:07:08.190Z,47.26
2022-08-10T10:08:42.681Z,47.03
2022-08-10T10:09:45.558Z,47.20
2022-08-10T10:11:09.721Z,47.44
2022-08-10T10:12:44.982Z,47.96
2022-08-10T10:14:02.971Z,47.22
2022-08-10T10:15:25.842Z,47.11
2022-08-10T10:16:38.624Z,47.13
2022-08-10T10:18:03.134Z,46.15
2022-08-10T10:19:15.451Z,46.55
2022-08-10T10:20:31.881Z,46.26
2022-08-10T10:21:53.948Z,46.99
2022-08-10T10:24:15.575Z,48.49
2022-08-10T10:25:21.002Z,49.24
2022-08-10T10:26:57.740Z,50.19
2022-08-10T10:28:13.411Z,49.83
2022-08-10T10:29:57.450Z,50.35
2022-08-10T10:31:16.325Z,50.00
2022-08-10T10:32:38.516Z,49.27
2022-08-10T10:33:46.654Z,49.56
2022-08-10T10:34:53.963Z,49.21
2022-08-10T10:35:55.876Z,49.70
2022-08-10T10:36:54.997Z,49.82
2022-08-10T10:38:01.295Z,49.46
2022-08-10T10:39:02.502Z,49.59
2022-08-10T10:40:03.921Z,49.61
2022-08-10T10:41:28.635Z,49.44
2022-08-10T10:42:45.555Z,50.16
2022-08-10T10:43:56.310Z,49.88
2022-08-10T10:45:21.583Z,50.26
2022-08-10T10:46:42.758Z,51.10
2022-08-10T10:48:00.962Z,50.61
2022-08-10T10:49:24.710Z,50.86
2022-08-10T10:50:34.869Z,50.84
2022-08-10T10:51:51.554Z,50.63
2022-08-10T10:53:04.032Z,51.23
2022-08-10T10:54:13.299Z,50.54
2022-08-10T10:55:10.378Z,50.83
2022-08-10T10:56:14.219Z,50.45
2022-08-10T10:57:18.391Z,51.12
2022-08-10T10:58:29.909Z,49.68
2022-08-10T10:59:56.291Z,49.31
2022-08-10T11:01:02.091Z,49.21
2022-08-10T11:02:21.654Z,50.17
2022-08-10T11:04:01.319Z,49.23
2022-08-10T11:05:16.450Z,50.02
2022-08-10T11:06:45.867Z,50.04
2022-08-10T11:07:53.462Z,50.05
2022-08-10T11:10:04.587Z,49.89
2022-08-10T11:10:47.348Z,49.94
2022-08-10T11:12:00.359Z,49.97
2022-08-10T11:14:24.598Z,49.56
2022-08-10T11:14:48.484Z,50.23
2022-08-10T11:15:59.618Z,51.07
2022-08-10T11:17:11.456Z,50.03
2022-08-10T11:19:05.314Z,50.71
2022-08-10T11:20:26.643Z,50.31
2022-08-10T11:21:50.974Z,49.00
2022-08-10T11:23:04.145Z,49.81
2022-08-10T11:24:48.229Z,49.38
2022-08-10T11:25:54.206Z,48.74
2022-08-10T11:27:08.444Z,48.82
2022-08-10T11:28:16.278Z,46.51
2022-08-10T11:29:45.799Z,47.45
2022-08-10T11:31:02.005Z,48.91
2022-08-10T11:32:20.599Z,48.22
2022-08-10T11:33:46.679Z,49.09
2022-08-10T11:35:18.662Z,48.56
2022-08-10T11:36:18.409Z,48.25
2022-08-10T11:37:27.341Z,47.53
2022-08-10T11:39:13.396Z,47.17
2022-08-10T11:40:26.415Z,48.11
2022-08-10T11:42:09.838Z,48.12
2022-08-10T11:43:36.169Z,48.02
2022-08-10T11:44:57.226Z,47.57
2022-08-10T11:46:16.503Z,48.37
2022-08-10T11:47:25.667Z,48.66
2022-08-10T11:48:53.318Z,49.15
2022-08-10T11:50:20.812Z,47.32
2022-08-10T11:51:26.804Z,46.55
2022-08-10T11:52:53.285Z,46.62
2022-08-10T11:53:52.637Z,46.42
2022-08-10T11:54:55.130Z,49.28
2022-08-10T11:55:57.689Z,51.56
2022-08-10T11:57:02.511Z,52.05
2022-08-10T11:58:31.064Z,52.53
2022-08-10T11:59:58.308Z,53.08
2022-08-10T12:01:02.208Z,52.84
2022-08-10T12:02:00.289Z,52.02
2022-08-10T12:03:02.789Z,52.41
2022-08-10T12:04:12.101Z,52.97
2022-08-10T12:05:24.143Z,53.57
2022-08-10T12:06:55.036Z,54.33
2022-08-10T12:10:02.499Z,52.71
2022-08-10T12:10:10.083Z,53.40
2022-08-10T12:10:51.788Z,53.38
2022-08-10T12:11:50.341Z,53.61
2022-08-10T12:12:55.880Z,53.08
2022-08-10T12:14:24.331Z,53.87
2022-08-10T12:15:36.945Z,57.01
2022-08-10T12:16:40.175Z,58.87
2022-08-10T12:17:51.003Z,60.24
2022-08-10T12:19:05.717Z,62.08
2022-08-10T12:20:10.847Z,63.27
2022-08-10T12:21:21.752Z,62.48
2022-08-10T12:22:31.625Z,62.96
2022-08-10T12:24:02.431Z,64.69
2022-08-10T12:25:07.443Z,64.68
2022-08-10T12:26:08.556Z,65.78
2022-08-10T12:27:13.276Z,64.63
2022-08-10T12:28:22.046Z,61.42
2022-08-10T12:30:07.822Z,60.25
2022-08-10T12:31:10.434Z,62.89
2022-08-10T12:32:17.902Z,65.96
2022-08-10T12:34:02.010Z,67.25
2022-08-10T12:35:11.875Z,66.76
2022-08-10T12:36:23.412Z,67.37
2022-08-10T12:37:31.467Z,67.38
2022-08-10T12:38:46.895Z,66.74
2022-08-10T12:40:12.012Z,68.85
2022-08-10T12:41:43.774Z,69.32
2022-08-10T12:42:45.027Z,66.58
2022-08-10T12:44:11.774Z,66.04
2022-08-10T12:45:33.096Z,62.90
2022-08-10T12:46:41.762Z,57.45
2022-08-10T12:48:01.721Z,57.99
2022-08-10T12:49:29.329Z,58.71
2022-08-10T12:50:38.596Z,60.95
2022-08-10T12:51:49.471Z,61.94
2022-08-10T12:53:06.375Z,61.93
2022-08-10T12:54:14.255Z,62.47
2022-08-10T12:55:12.806Z,64.31
2022-08-10T12:56:10.049Z,63.67
2022-08-10T12:57:16.191Z,63.48
2022-08-10T12:58:59.078Z,63.59
2022-08-10T12:59:43.356Z,64.05
2022-08-10T13:01:05.751Z,64.47
2022-08-10T13:02:06.919Z,64.51
2022-08-10T13:03:09.632Z,65.66
2022-08-10T13:04:16.300Z,66.67
2022-08-10T13:05:21.624Z,67.43
2022-08-10T13:06:21.372Z,68.09
2022-08-10T13:08:27.159Z,67.64
2022-08-10T13:09:25.781Z,67.59
2022-08-10T13:10:23.173Z,67.69
2022-08-10T13:12:38.549Z,67.48
2022-08-10T13:12:54.256Z,66.95
2022-08-10T13:13:56.364Z,67.12
2022-08-10T13:15:45.919Z,67.67
2022-08-10T13:16:31.640Z,66.75
2022-08-10T13:17:39.678Z,65.41
2022-08-10T13:18:41.606Z,64.36
2022-08-10T13:19:56.597Z,62.98
2022-08-10T13:21:04.481Z,62.40
2022-08-10T13:22:20.713Z,62.78
2022-08-10T13:24:01.250Z,63.06
2022-08-10T13:25:03.894Z,62.84
2022-08-10T13:26:04.635Z,62.59
2022-08-10T13:27:26.739Z,61.81
2022-08-10T13:28:45.592Z,60.84
2022-08-10T13:29:52.840Z,61.14
2022-08-10T13:30:52.067Z,61.65
2022-08-10T13:32:04.285Z,60.59
2022-08-10T13:33:10.641Z,60.27
2022-08-10T13:34:43.028Z,60.59
2022-08-10T13:35:45.892Z,60.08
2022-08-10T13:36:47.550Z,61.01
2022-08-10T13:37:46.845Z,60.57
2022-08-10T13:38:48.736Z,61.42
2022-08-10T13:39:59.008Z,62.01
2022-08-10T13:40:58.774Z,62.23
2022-08-10T13:41:56.774Z,61.75
2022-08-10T13:42:58.522Z,62.53
2022-08-10T13:43:59.355Z,62.61
2022-08-10T13:46:22.685Z,62.61
2022-08-10T13:47:31.037Z,62.47
2022-08-10T13:48:46.888Z,61.98
2022-08-10T13:49:46.698Z,62.55
2022-08-10T13:50:46.847Z,62.62
2022-08-10T13:51:57.111Z,62.94
2022-08-10T13:52:57.754Z,62.48
2022-08-10T13:53:59.507Z,63.52
2022-08-10T13:55:00.679Z,64.00
2022-08-10T13:56:00.114Z,64.09
2022-08-10T13:56:59.170Z,64.36
2022-08-10T13:58:01.049Z,64.16
2022-08-10T13:58:59.747Z,64.61
2022-08-10T14:00:34.760Z,63.54
2022-08-10T14:01:24.017Z,63.60
2022-08-10T14:02:28.538Z,62.73
2022-08-10T14:03:28.560Z,62.26
2022-08-10T14:04:25.322Z,62.83
2022-08-10T14:05:30.200Z,62.03
2022-08-10T14:06:30.075Z,61.14
2022-08-10T14:07:28.755Z,60.96
2022-08-10T14:08:30.059Z,60.70
2022-08-10T14:09:33.800Z,61.96
2022-08-10T14:11:01.683Z,61.65
2022-08-10T14:12:02.213Z,63.20
2022-08-10T14:13:03.519Z,63.95
2022-08-10T14:14:21.177Z,66.06
2022-08-10T14:15:28.894Z,66.95
2022-08-10T14:16:26.990Z,68.69
2022-08-10T14:17:26.409Z,68.78
2022-08-10T14:18:25.666Z,69.71
2022-08-10T14:19:30.705Z,69.12
2022-08-10T14:20:36.518Z,69.78
2022-08-10T14:21:39.802Z,69.20
2022-08-10T14:22:37.938Z,69.62
2022-08-10T14:23:42.466Z,70.63
2022-08-10T14:24:49.070Z,71.17
2022-08-10T14:26:08.917Z,71.88
2022-08-10T14:27:10.281Z,72.45
2022-08-10T14:28:07.544Z,72.09
2022-08-10T14:29:06.619Z,71.21
2022-08-10T14:30:06.105Z,70.60
2022-08-10T14:31:06.618Z,71.64
2022-08-10T14:32:09.430Z,72.74
2022-08-10T14:33:09.071Z,73.97
2022-08-10T14:34:12.203Z,75.25
2022-08-10T14:36:21.179Z,76.43
2022-08-10T14:36:53.660Z,79.08
2022-08-10T14:37:56.055Z,80.64